sensor_id;sensor_type;location;lat;lon;timestamp;temperature;humidity
12588;DHT22;6359;51.450;7.346;2022-11-20T00:01:28;-4.50;99.90
12588;DHT22;6359;51.450;7.346;2022-11-20T00:03:57;-4.50;99.90
12588;DHT22;6359;51.450;7.346;2022-11-20T00:06:25;-4.40;99.90
12588;DHT22;6359;51.450;7.346;2022-11-20T00:08:54;-4.20;99.90
12588;DHT22;6359;51.450;7.346;2022-11-20T00:11:24;-4.00;99.90
12588;DHT22;6359;51.450;7.346;2022-11-20T00:13:53;-3.90;99.90
12588;DHT22;6359;51.450;7.346;2022-11-20T00:16:23;-3.80;99.90
12588;DHT22;6359;51.450;7.346;2022-11-20T00:18:51;-3.70;99.90
12588;DHT22;6359;51.450;7.346;2022-11-20T00:21:19;-3.70;99.90
12588;DHT22;6359;51.450;7.346;2022-11-20T00:23:46;-3.60;99.90
12588;DHT22;6359;51.450;7.346;2022-11-20T00:26:17;-3.50;99.90
12588;DHT22;6359;51.450;7.346;2022-11-20T00:28:49;-3.40;99.90
12588;DHT22;6359;51.450;7.346;2022-11-20T00:31:16;-3.30;99.90
12588;DHT22;6359;51.450;7.346;2022-11-20T00:33:45;-3.20;99.90
12588;DHT22;6359;51.450;7.346;2022-11-20T00:36:15;-3.00;99.90
12588;DHT22;6359;51.450;7.346;2022-11-20T00:38:42;-2.90;99.90
12588;DHT22;6359;51.450;7.346;2022-11-20T00:41:11;-2.90;99.90
12588;DHT22;6359;51.450;7.346;2022-11-20T00:43:39;-2.80;99.90
12588;DHT22;6359;51.450;7.346;2022-11-20T00:46:08;-2.70;99.90
12588;DHT22;6359;51.450;7.346;2022-11-20T00:48:36;-2.60;99.90
12588;DHT22;6359;51.450;7.346;2022-11-20T00:51:05;-2.50;99.90
12588;DHT22;6359;51.450;7.346;2022-11-20T00:53:32;-2.40;99.90
12588;DHT22;6359;51.450;7.346;2022-11-20T00:56:00;-2.30;99.90
12588;DHT22;6359;51.450;7.346;2022-11-20T00:58:30;-2.30;99.90
12588;DHT22;6359;51.450;7.346;2022-11-20T01:01:00;-2.30;99.90
12588;DHT22;6359;51.450;7.346;2022-11-20T01:03:30;-2.30;99.90
12588;DHT22;6359;51.450;7.346;2022-11-20T01:05:59;-2.20;99.90
12588;DHT22;6359;51.450;7.346;2022-11-20T01:08:31;-2.10;99.90
12588;DHT22;6359;51.450;7.346;2022-11-20T01:11:02;-2.00;99.90
12588;DHT22;6359;51.450;7.346;2022-11-20T01:13:29;-1.90;99.90
12588;DHT22;6359;51.450;7.346;2022-11-20T01:16:08;-1.90;99.90
12588;DHT22;6359;51.450;7.346;2022-11-20T01:18:35;-1.80;99.90
12588;DHT22;6359;51.450;7.346;2022-11-20T01:21:05;-1.80;99.90
12588;DHT22;6359;51.450;7.346;2022-11-20T01:23:35;-1.60;99.90
12588;DHT22;6359;51.450;7.346;2022-11-20T01:26:04;-1.60;99.90
12588;DHT22;6359;51.450;7.346;2022-11-20T01:28:31;-1.70;99.90
12588;DHT22;6359;51.450;7.346;2022-11-20T01:30:59;-1.60;99.90
12588;DHT22;6359;51.450;7.346;2022-11-20T01:33:26;-1.60;99.90
12588;DHT22;6359;51.450;7.346;2022-11-20T01:35:53;-1.60;99.90
12588;DHT22;6359;51.450;7.346;2022-11-20T01:38:20;-1.60;99.90
12588;DHT22;6359;51.450;7.346;2022-11-20T01:40:55;-1.50;99.90
12588;DHT22;6359;51.450;7.346;2022-11-20T01:43:22;-1.50;99.90
12588;DHT22;6359;51.450;7.346;2022-11-20T01:46:13;-1.40;99.90
12588;DHT22;6359;51.450;7.346;2022-11-20T01:48:45;-1.30;99.90
12588;DHT22;6359;51.450;7.346;2022-11-20T01:51:16;-1.20;99.90
12588;DHT22;6359;51.450;7.346;2022-11-20T01:53:44;-1.20;99.90
12588;DHT22;6359;51.450;7.346;2022-11-20T01:56:14;-1.10;99.90
12588;DHT22;6359;51.450;7.346;2022-11-20T01:58:45;-1.00;99.90
12588;DHT22;6359;51.450;7.346;2022-11-20T02:01:14;-1.00;99.90
12588;DHT22;6359;51.450;7.346;2022-11-20T02:03:41;-1.00;99.90
12588;DHT22;6359;51.450;7.346;2022-11-20T02:06:14;-1.10;99.90
12588;DHT22;6359;51.450;7.346;2022-11-20T02:08:43;-1.00;99.90
12588;DHT22;6359;51.450;7.346;2022-11-20T02:11:10;-1.00;99.90
12588;DHT22;6359;51.450;7.346;2022-11-20T02:13:40;-1.00;99.90
12588;DHT22;6359;51.450;7.346;2022-11-20T02:16:11;-0.90;99.90
12588;DHT22;6359;51.450;7.346;2022-11-20T02:18:39;-0.90;99.90
12588;DHT22;6359;51.450;7.346;2022-11-20T02:21:08;-0.90;99.90
12588;DHT22;6359;51.450;7.346;2022-11-20T02:23:39;-0.90;99.90
12588;DHT22;6359;51.450;7.346;2022-11-20T02:26:13;-0.80;99.90
12588;DHT22;6359;51.450;7.346;2022-11-20T02:28:42;-0.70;99.90
12588;DHT22;6359;51.450;7.346;2022-11-20T02:31:09;-0.70;99.90
12588;DHT22;6359;51.450;7.346;2022-11-20T02:33:36;-0.60;99.90
12588;DHT22;6359;51.450;7.346;2022-11-20T02:36:03;-0.80;99.90
12588;DHT22;6359;51.450;7.346;2022-11-20T02:38:31;-0.70;99.90
12588;DHT22;6359;51.450;7.346;2022-11-20T02:40:58;-0.70;99.90
12588;DHT22;6359;51.450;7.346;2022-11-20T02:43:26;-0.70;99.90
12588;DHT22;6359;51.450;7.346;2022-11-20T02:45:53;-0.60;99.90
12588;DHT22;6359;51.450;7.346;2022-11-20T02:48:20;-0.60;99.90
12588;DHT22;6359;51.450;7.346;2022-11-20T02:50:47;-0.50;99.90
12588;DHT22;6359;51.450;7.346;2022-11-20T02:53:14;-0.50;99.90
12588;DHT22;6359;51.450;7.346;2022-11-20T02:55:41;-0.50;99.90
12588;DHT22;6359;51.450;7.346;2022-11-20T02:58:08;-0.40;99.90
12588;DHT22;6359;51.450;7.346;2022-11-20T03:00:37;-0.40;99.90
12588;DHT22;6359;51.450;7.346;2022-11-20T03:03:04;-0.30;99.90
12588;DHT22;6359;51.450;7.346;2022-11-20T03:05:31;-0.30;99.90
12588;DHT22;6359;51.450;7.346;2022-11-20T03:07:58;-0.30;99.90
12588;DHT22;6359;51.450;7.346;2022-11-20T03:10:25;-0.20;99.90
12588;DHT22;6359;51.450;7.346;2022-11-20T03:12:53;-0.20;99.90
12588;DHT22;6359;51.450;7.346;2022-11-20T03:15:21;-0.20;99.90
12588;DHT22;6359;51.450;7.346;2022-11-20T03:17:52;-0.10;99.90
12588;DHT22;6359;51.450;7.346;2022-11-20T03:20:19;-0.10;99.90
12588;DHT22;6359;51.450;7.346;2022-11-20T03:22:46;-0.10;99.90
12588;DHT22;6359;51.450;7.346;2022-11-20T03:25:13;-0.20;99.90
12588;DHT22;6359;51.450;7.346;2022-11-20T03:27:40;-0.20;99.90
12588;DHT22;6359;51.450;7.346;2022-11-20T03:30:08;-0.20;99.90
12588;DHT22;6359;51.450;7.346;2022-11-20T03:32:35;-0.30;99.90
12588;DHT22;6359;51.450;7.346;2022-11-20T03:35:04;-0.30;99.90
12588;DHT22;6359;51.450;7.346;2022-11-20T03:37:31;-0.20;99.90
12588;DHT22;6359;51.450;7.346;2022-11-20T03:39:58;-0.20;99.90
12588;DHT22;6359;51.450;7.346;2022-11-20T03:42:25;-0.20;99.90
12588;DHT22;6359;51.450;7.346;2022-11-20T03:45:10;-0.10;99.90
12588;DHT22;6359;51.450;7.346;2022-11-20T03:47:38;0.00;99.90
12588;DHT22;6359;51.450;7.346;2022-11-20T03:50:07;0.00;99.90
12588;DHT22;6359;51.450;7.346;2022-11-20T03:52:34;0.00;99.90
12588;DHT22;6359;51.450;7.346;2022-11-20T03:55:01;0.10;99.90
12588;DHT22;6359;51.450;7.346;2022-11-20T03:57:28;0.10;99.90
12588;DHT22;6359;51.450;7.346;2022-11-20T03:59:55;0.20;99.90
12588;DHT22;6359;51.450;7.346;2022-11-20T04:02:22;0.10;99.90
12588;DHT22;6359;51.450;7.346;2022-11-20T04:04:49;0.10;99.90
12588;DHT22;6359;51.450;7.346;2022-11-20T04:07:17;0.20;99.90
12588;DHT22;6359;51.450;7.346;2022-11-20T04:09:44;0.20;99.90
12588;DHT22;6359;51.450;7.346;2022-11-20T04:12:11;0.30;99.90
12588;DHT22;6359;51.450;7.346;2022-11-20T04:14:38;0.30;99.90
12588;DHT22;6359;51.450;7.346;2022-11-20T04:17:05;0.40;99.90
12588;DHT22;6359;51.450;7.346;2022-11-20T04:19:32;0.30;99.90
12588;DHT22;6359;51.450;7.346;2022-11-20T04:21:59;0.30;99.90
12588;DHT22;6359;51.450;7.346;2022-11-20T04:24:28;0.30;99.90
12588;DHT22;6359;51.450;7.346;2022-11-20T04:26:55;0.40;99.90
12588;DHT22;6359;51.450;7.346;2022-11-20T04:29:22;0.40;99.90
12588;DHT22;6359;51.450;7.346;2022-11-20T04:31:49;0.40;99.90
12588;DHT22;6359;51.450;7.346;2022-11-20T04:34:15;0.40;99.90
12588;DHT22;6359;51.450;7.346;2022-11-20T04:36:42;0.40;99.90
12588;DHT22;6359;51.450;7.346;2022-11-20T04:39:13;0.40;99.90
12588;DHT22;6359;51.450;7.346;2022-11-20T04:41:42;0.40;99.90
12588;DHT22;6359;51.450;7.346;2022-11-20T04:44:09;0.30;99.90
12588;DHT22;6359;51.450;7.346;2022-11-20T04:46:37;0.30;99.90
12588;DHT22;6359;51.450;7.346;2022-11-20T04:49:06;0.30;99.90
12588;DHT22;6359;51.450;7.346;2022-11-20T04:51:33;0.30;99.90
12588;DHT22;6359;51.450;7.346;2022-11-20T04:54:00;0.30;99.90
12588;DHT22;6359;51.450;7.346;2022-11-20T04:56:27;0.30;99.90
12588;DHT22;6359;51.450;7.346;2022-11-20T04:58:59;0.40;99.90
12588;DHT22;6359;51.450;7.346;2022-11-20T05:01:26;0.40;99.90
12588;DHT22;6359;51.450;7.346;2022-11-20T05:03:52;0.30;99.90
12588;DHT22;6359;51.450;7.346;2022-11-20T05:06:21;0.30;99.90
12588;DHT22;6359;51.450;7.346;2022-11-20T05:08:48;0.30;99.90
12588;DHT22;6359;51.450;7.346;2022-11-20T05:11:17;0.40;99.90
12588;DHT22;6359;51.450;7.346;2022-11-20T05:13:44;0.40;99.90
12588;DHT22;6359;51.450;7.346;2022-11-20T05:16:14;0.30;99.90
12588;DHT22;6359;51.450;7.346;2022-11-20T05:18:41;0.30;99.90
12588;DHT22;6359;51.450;7.346;2022-11-20T05:21:09;0.30;99.90
12588;DHT22;6359;51.450;7.346;2022-11-20T05:23:36;0.40;99.90
12588;DHT22;6359;51.450;7.346;2022-11-20T05:26:05;0.40;99.90
12588;DHT22;6359;51.450;7.346;2022-11-20T05:28:33;0.40;99.90
12588;DHT22;6359;51.450;7.346;2022-11-20T05:31:05;0.40;99.90
12588;DHT22;6359;51.450;7.346;2022-11-20T05:33:34;0.40;99.90
12588;DHT22;6359;51.450;7.346;2022-11-20T05:36:01;0.40;99.90
12588;DHT22;6359;51.450;7.346;2022-11-20T05:38:28;0.40;99.90
12588;DHT22;6359;51.450;7.346;2022-11-20T05:41:02;0.40;99.90
12588;DHT22;6359;51.450;7.346;2022-11-20T05:43:31;0.50;99.90
12588;DHT22;6359;51.450;7.346;2022-11-20T05:45:58;0.50;99.90
12588;DHT22;6359;51.450;7.346;2022-11-20T05:48:25;0.50;99.90
12588;DHT22;6359;51.450;7.346;2022-11-20T05:50:53;0.50;99.90
12588;DHT22;6359;51.450;7.346;2022-11-20T05:53:20;0.40;99.90
12588;DHT22;6359;51.450;7.346;2022-11-20T05:55:56;0.40;99.90
12588;DHT22;6359;51.450;7.346;2022-11-20T05:58:23;0.40;99.90
12588;DHT22;6359;51.450;7.346;2022-11-20T06:00:50;0.40;99.90
12588;DHT22;6359;51.450;7.346;2022-11-20T06:03:17;0.30;99.90
12588;DHT22;6359;51.450;7.346;2022-11-20T06:05:44;0.30;99.90
12588;DHT22;6359;51.450;7.346;2022-11-20T06:08:12;0.20;99.90
12588;DHT22;6359;51.450;7.346;2022-11-20T06:10:39;0.20;99.90
12588;DHT22;6359;51.450;7.346;2022-11-20T06:13:06;0.20;99.90
12588;DHT22;6359;51.450;7.346;2022-11-20T06:15:32;0.10;99.90
12588;DHT22;6359;51.450;7.346;2022-11-20T06:18:00;0.10;99.90
12588;DHT22;6359;51.450;7.346;2022-11-20T06:20:26;0.10;99.90
12588;DHT22;6359;51.450;7.346;2022-11-20T06:22:53;0.00;99.90
12588;DHT22;6359;51.450;7.346;2022-11-20T06:25:21;-0.10;99.90
12588;DHT22;6359;51.450;7.346;2022-11-20T06:27:48;-0.10;99.90
12588;DHT22;6359;51.450;7.346;2022-11-20T06:30:15;-0.20;99.90
12588;DHT22;6359;51.450;7.346;2022-11-20T06:32:42;-0.20;99.90
12588;DHT22;6359;51.450;7.346;2022-11-20T06:35:10;-0.20;99.90
12588;DHT22;6359;51.450;7.346;2022-11-20T06:37:36;-0.20;99.90
12588;DHT22;6359;51.450;7.346;2022-11-20T06:40:04;-0.30;99.90
12588;DHT22;6359;51.450;7.346;2022-11-20T06:42:33;-0.30;99.90
12588;DHT22;6359;51.450;7.346;2022-11-20T06:45:00;-0.40;99.90
12588;DHT22;6359;51.450;7.346;2022-11-20T06:47:27;-0.40;99.90
12588;DHT22;6359;51.450;7.346;2022-11-20T06:49:54;-0.50;99.90
12588;DHT22;6359;51.450;7.346;2022-11-20T06:52:21;-0.60;99.90
12588;DHT22;6359;51.450;7.346;2022-11-20T06:54:48;-0.70;99.90
12588;DHT22;6359;51.450;7.346;2022-11-20T06:57:14;-0.70;99.90
12588;DHT22;6359;51.450;7.346;2022-11-20T06:59:43;-0.80;99.90
12588;DHT22;6359;51.450;7.346;2022-11-20T07:02:10;-0.90;99.90
12588;DHT22;6359;51.450;7.346;2022-11-20T07:04:38;-0.90;99.90
12588;DHT22;6359;51.450;7.346;2022-11-20T07:07:05;-1.00;99.90
12588;DHT22;6359;51.450;7.346;2022-11-20T07:09:32;-1.00;99.90
12588;DHT22;6359;51.450;7.346;2022-11-20T07:11:59;-1.10;99.90
12588;DHT22;6359;51.450;7.346;2022-11-20T07:14:26;-1.10;99.90
12588;DHT22;6359;51.450;7.346;2022-11-20T07:16:55;-1.10;99.90
12588;DHT22;6359;51.450;7.346;2022-11-20T07:19:22;-1.10;99.90
12588;DHT22;6359;51.450;7.346;2022-11-20T07:21:49;-1.10;99.90
12588;DHT22;6359;51.450;7.346;2022-11-20T07:24:16;-1.20;99.90
12588;DHT22;6359;51.450;7.346;2022-11-20T07:26:46;-1.20;99.90
12588;DHT22;6359;51.450;7.346;2022-11-20T07:29:14;-1.30;99.90
12588;DHT22;6359;51.450;7.346;2022-11-20T07:31:42;-1.20;99.90
12588;DHT22;6359;51.450;7.346;2022-11-20T07:34:10;-1.20;99.90
12588;DHT22;6359;51.450;7.346;2022-11-20T07:36:37;-1.20;99.90
12588;DHT22;6359;51.450;7.346;2022-11-20T07:39:04;-1.20;99.90
12588;DHT22;6359;51.450;7.346;2022-11-20T07:41:31;-1.30;99.90
12588;DHT22;6359;51.450;7.346;2022-11-20T07:43:58;-1.30;99.90
12588;DHT22;6359;51.450;7.346;2022-11-20T07:46:24;-1.20;99.90
12588;DHT22;6359;51.450;7.346;2022-11-20T07:48:51;-1.20;99.90
12588;DHT22;6359;51.450;7.346;2022-11-20T07:51:19;-1.20;99.90
12588;DHT22;6359;51.450;7.346;2022-11-20T07:53:46;-1.20;99.90
12588;DHT22;6359;51.450;7.346;2022-11-20T07:56:13;-1.10;99.90
12588;DHT22;6359;51.450;7.346;2022-11-20T07:58:40;-1.00;99.90
12588;DHT22;6359;51.450;7.346;2022-11-20T08:01:07;-1.00;99.90
12588;DHT22;6359;51.450;7.346;2022-11-20T08:03:35;-0.90;99.90
12588;DHT22;6359;51.450;7.346;2022-11-20T08:06:03;-0.80;99.90
12588;DHT22;6359;51.450;7.346;2022-11-20T08:08:32;-0.40;99.90
12588;DHT22;6359;51.450;7.346;2022-11-20T08:10:59;-0.10;99.90
12588;DHT22;6359;51.450;7.346;2022-11-20T08:13:40;-0.20;99.90
12588;DHT22;6359;51.450;7.346;2022-11-20T08:16:24;-0.20;99.90
12588;DHT22;6359;51.450;7.346;2022-11-20T08:18:51;0.10;99.90
12588;DHT22;6359;51.450;7.346;2022-11-20T08:21:17;0.10;99.90
12588;DHT22;6359;51.450;7.346;2022-11-20T08:23:46;0.20;99.90
12588;DHT22;6359;51.450;7.346;2022-11-20T08:26:13;0.50;99.90
12588;DHT22;6359;51.450;7.346;2022-11-20T08:28:40;0.50;99.90
12588;DHT22;6359;51.450;7.346;2022-11-20T08:31:07;0.50;99.90
12588;DHT22;6359;51.450;7.346;2022-11-20T08:33:35;0.40;99.90
12588;DHT22;6359;51.450;7.346;2022-11-20T08:36:03;0.50;99.90
12588;DHT22;6359;51.450;7.346;2022-11-20T08:38:31;0.50;99.90
12588;DHT22;6359;51.450;7.346;2022-11-20T08:41:00;0.50;99.90
12588;DHT22;6359;51.450;7.346;2022-11-20T08:43:45;0.50;99.90
12588;DHT22;6359;51.450;7.346;2022-11-20T08:46:12;0.80;99.90
12588;DHT22;6359;51.450;7.346;2022-11-20T08:48:39;1.00;99.90
12588;DHT22;6359;51.450;7.346;2022-11-20T08:51:06;1.10;99.90
12588;DHT22;6359;51.450;7.346;2022-11-20T08:53:33;1.40;99.90
12588;DHT22;6359;51.450;7.346;2022-11-20T08:56:02;2.10;99.90
12588;DHT22;6359;51.450;7.346;2022-11-20T08:58:29;3.30;99.90
12588;DHT22;6359;51.450;7.346;2022-11-20T09:00:55;4.50;99.90
12588;DHT22;6359;51.450;7.346;2022-11-20T09:03:22;5.60;99.90
12588;DHT22;6359;51.450;7.346;2022-11-20T09:05:56;7.10;99.90
12588;DHT22;6359;51.450;7.346;2022-11-20T09:08:23;8.40;99.90
12588;DHT22;6359;51.450;7.346;2022-11-20T09:10:51;8.50;99.90
12588;DHT22;6359;51.450;7.346;2022-11-20T09:13:19;8.50;99.90
12588;DHT22;6359;51.450;7.346;2022-11-20T09:15:46;8.20;99.90
12588;DHT22;6359;51.450;7.346;2022-11-20T09:18:13;7.30;99.90
12588;DHT22;6359;51.450;7.346;2022-11-20T09:20:40;7.20;99.90
12588;DHT22;6359;51.450;7.346;2022-11-20T09:23:07;7.20;99.90
12588;DHT22;6359;51.450;7.346;2022-11-20T09:25:34;6.90;99.90
12588;DHT22;6359;51.450;7.346;2022-11-20T09:28:01;6.10;99.90
12588;DHT22;6359;51.450;7.346;2022-11-20T09:30:29;5.80;99.90
12588;DHT22;6359;51.450;7.346;2022-11-20T09:32:56;6.50;99.90
12588;DHT22;6359;51.450;7.346;2022-11-20T09:35:23;7.10;99.90
12588;DHT22;6359;51.450;7.346;2022-11-20T09:37:50;7.40;99.90
12588;DHT22;6359;51.450;7.346;2022-11-20T09:40:20;7.90;99.90
12588;DHT22;6359;51.450;7.346;2022-11-20T09:42:51;8.10;99.90
12588;DHT22;6359;51.450;7.346;2022-11-20T09:45:24;8.60;99.90
12588;DHT22;6359;51.450;7.346;2022-11-20T09:50:49;8.90;99.90
12588;DHT22;6359;51.450;7.346;2022-11-20T09:53:24;8.90;99.90
12588;DHT22;6359;51.450;7.346;2022-11-20T09:55:53;9.10;99.90
12588;DHT22;6359;51.450;7.346;2022-11-20T09:58:26;9.00;99.90
12588;DHT22;6359;51.450;7.346;2022-11-20T10:01:08;8.70;99.90
12588;DHT22;6359;51.450;7.346;2022-11-20T10:03:41;7.80;99.90
12588;DHT22;6359;51.450;7.346;2022-11-20T10:06:13;7.20;99.90
12588;DHT22;6359;51.450;7.346;2022-11-20T10:08:44;6.70;99.90
12588;DHT22;6359;51.450;7.346;2022-11-20T10:11:18;6.30;99.90
12588;DHT22;6359;51.450;7.346;2022-11-20T10:13:58;6.00;99.90
12588;DHT22;6359;51.450;7.346;2022-11-20T10:16:35;5.60;99.90
12588;DHT22;6359;51.450;7.346;2022-11-20T10:19:21;5.30;99.90
12588;DHT22;6359;51.450;7.346;2022-11-20T10:21:59;5.20;99.90
12588;DHT22;6359;51.450;7.346;2022-11-20T10:24:43;5.10;99.90
12588;DHT22;6359;51.450;7.346;2022-11-20T10:27:26;4.90;99.90
12588;DHT22;6359;51.450;7.346;2022-11-20T10:30:00;4.80;99.90
12588;DHT22;6359;51.450;7.346;2022-11-20T10:32:33;4.80;99.90
12588;DHT22;6359;51.450;7.346;2022-11-20T10:35:06;4.80;99.90
12588;DHT22;6359;51.450;7.346;2022-11-20T10:37:37;4.70;99.90
12588;DHT22;6359;51.450;7.346;2022-11-20T10:40:20;4.80;99.90
12588;DHT22;6359;51.450;7.346;2022-11-20T10:42:51;4.70;99.90
12588;DHT22;6359;51.450;7.346;2022-11-20T10:45:32;4.80;99.90
12588;DHT22;6359;51.450;7.346;2022-11-20T10:48:12;4.90;99.90
12588;DHT22;6359;51.450;7.346;2022-11-20T10:50:49;5.00;99.90
12588;DHT22;6359;51.450;7.346;2022-11-20T10:53:33;5.00;99.90
12588;DHT22;6359;51.450;7.346;2022-11-20T10:56:07;5.00;99.90
12588;DHT22;6359;51.450;7.346;2022-11-20T10:58:43;4.90;99.90
12588;DHT22;6359;51.450;7.346;2022-11-20T11:01:14;4.70;99.90
12588;DHT22;6359;51.450;7.346;2022-11-20T11:03:42;4.60;99.90
12588;DHT22;6359;51.450;7.346;2022-11-20T11:06:17;4.60;99.90
12588;DHT22;6359;51.450;7.346;2022-11-20T11:08:47;4.50;99.90
12588;DHT22;6359;51.450;7.346;2022-11-20T11:11:21;4.50;99.90
12588;DHT22;6359;51.450;7.346;2022-11-20T11:13:49;4.60;99.90
12588;DHT22;6359;51.450;7.346;2022-11-20T11:16:23;4.70;99.90
12588;DHT22;6359;51.450;7.346;2022-11-20T11:18:51;4.70;99.90
12588;DHT22;6359;51.450;7.346;2022-11-20T11:21:24;4.70;99.90
12588;DHT22;6359;51.450;7.346;2022-11-20T11:24:02;4.80;99.90
12588;DHT22;6359;51.450;7.346;2022-11-20T11:26:30;4.90;99.90
12588;DHT22;6359;51.450;7.346;2022-11-20T11:28:59;4.90;99.90
12588;DHT22;6359;51.450;7.346;2022-11-20T11:31:27;4.90;99.90
12588;DHT22;6359;51.450;7.346;2022-11-20T11:34:04;5.00;99.90
12588;DHT22;6359;51.450;7.346;2022-11-20T11:36:34;5.10;99.90
12588;DHT22;6359;51.450;7.346;2022-11-20T11:39:03;5.40;99.90
12588;DHT22;6359;51.450;7.346;2022-11-20T11:41:32;5.50;99.90
12588;DHT22;6359;51.450;7.346;2022-11-20T11:44:18;5.60;99.90
12588;DHT22;6359;51.450;7.346;2022-11-20T11:47:05;5.60;99.90
12588;DHT22;6359;51.450;7.346;2022-11-20T11:49:32;5.60;99.90
12588;DHT22;6359;51.450;7.346;2022-11-20T11:52:05;5.50;99.90
12588;DHT22;6359;51.450;7.346;2022-11-20T11:54:38;5.50;99.90
12588;DHT22;6359;51.450;7.346;2022-11-20T11:57:12;5.50;99.90
12588;DHT22;6359;51.450;7.346;2022-11-20T11:59:51;5.80;99.90
12588;DHT22;6359;51.450;7.346;2022-11-20T12:02:29;5.90;99.90
12588;DHT22;6359;51.450;7.346;2022-11-20T12:04:59;6.00;99.90
12588;DHT22;6359;51.450;7.346;2022-11-20T12:07:38;6.10;99.90
12588;DHT22;6359;51.450;7.346;2022-11-20T12:10:14;6.20;99.90
12588;DHT22;6359;51.450;7.346;2022-11-20T12:12:44;6.00;99.90
12588;DHT22;6359;51.450;7.346;2022-11-20T12:15:20;5.90;99.90
12588;DHT22;6359;51.450;7.346;2022-11-20T12:17:49;5.90;99.90
12588;DHT22;6359;51.450;7.346;2022-11-20T12:20:17;5.90;99.90
12588;DHT22;6359;51.450;7.346;2022-11-20T12:22:51;5.60;99.90
12588;DHT22;6359;51.450;7.346;2022-11-20T12:25:22;5.60;99.90
12588;DHT22;6359;51.450;7.346;2022-11-20T12:28:27;5.80;99.90
12588;DHT22;6359;51.450;7.346;2022-11-20T12:31:10;5.60;99.90
12588;DHT22;6359;51.450;7.346;2022-11-20T12:33:53;5.60;99.90
12588;DHT22;6359;51.450;7.346;2022-11-20T12:36:27;5.50;99.90
12588;DHT22;6359;51.450;7.346;2022-11-20T12:39:24;5.50;99.90
12588;DHT22;6359;51.450;7.346;2022-11-20T12:42:16;5.40;99.90
12588;DHT22;6359;51.450;7.346;2022-11-20T12:48:26;5.10;99.90
12588;DHT22;6359;51.450;7.346;2022-11-20T12:51:09;5.00;99.90
12588;DHT22;6359;51.450;7.346;2022-11-20T12:53:43;5.00;99.90
12588;DHT22;6359;51.450;7.346;2022-11-20T12:56:24;4.90;99.90
12588;DHT22;6359;51.450;7.346;2022-11-20T12:59:06;4.90;99.90
12588;DHT22;6359;51.450;7.346;2022-11-20T13:01:40;4.90;99.90
12588;DHT22;6359;51.450;7.346;2022-11-20T13:04:24;4.80;99.90
12588;DHT22;6359;51.450;7.346;2022-11-20T13:06:53;4.80;99.90
12588;DHT22;6359;51.450;7.346;2022-11-20T13:09:22;4.70;99.90
12588;DHT22;6359;51.450;7.346;2022-11-20T13:12:00;4.50;99.90
12588;DHT22;6359;51.450;7.346;2022-11-20T13:14:35;4.60;99.90
12588;DHT22;6359;51.450;7.346;2022-11-20T13:17:06;4.50;99.90
12588;DHT22;6359;51.450;7.346;2022-11-20T13:19:36;4.30;99.90
12588;DHT22;6359;51.450;7.346;2022-11-20T13:22:04;4.40;99.90
12588;DHT22;6359;51.450;7.346;2022-11-20T13:24:32;4.30;99.90
12588;DHT22;6359;51.450;7.346;2022-11-20T13:27:19;4.40;99.90
12588;DHT22;6359;51.450;7.346;2022-11-20T13:29:58;4.60;99.90
12588;DHT22;6359;51.450;7.346;2022-11-20T13:32:26;4.70;99.90
12588;DHT22;6359;51.450;7.346;2022-11-20T13:34:59;4.60;99.90
12588;DHT22;6359;51.450;7.346;2022-11-20T13:37:32;4.60;99.90
12588;DHT22;6359;51.450;7.346;2022-11-20T13:40:21;4.50;99.90
12588;DHT22;6359;51.450;7.346;2022-11-20T13:43:02;4.60;99.90
12588;DHT22;6359;51.450;7.346;2022-11-20T13:45:32;4.60;99.90
12588;DHT22;6359;51.450;7.346;2022-11-20T13:48:02;4.70;99.90
12588;DHT22;6359;51.450;7.346;2022-11-20T13:50:51;4.60;99.90
12588;DHT22;6359;51.450;7.346;2022-11-20T13:53:44;4.60;99.90
12588;DHT22;6359;51.450;7.346;2022-11-20T13:56:23;4.40;99.90
12588;DHT22;6359;51.450;7.346;2022-11-20T13:59:02;4.40;99.90
12588;DHT22;6359;51.450;7.346;2022-11-20T14:01:32;4.40;99.90
12588;DHT22;6359;51.450;7.346;2022-11-20T14:04:05;4.30;99.90
12588;DHT22;6359;51.450;7.346;2022-11-20T14:06:39;4.50;99.90
12588;DHT22;6359;51.450;7.346;2022-11-20T14:09:10;4.60;99.90
12588;DHT22;6359;51.450;7.346;2022-11-20T14:11:46;4.60;99.90
12588;DHT22;6359;51.450;7.346;2022-11-20T14:14:16;4.60;99.90
12588;DHT22;6359;51.450;7.346;2022-11-20T14:16:44;4.60;99.90
12588;DHT22;6359;51.450;7.346;2022-11-20T14:19:25;4.60;99.90
12588;DHT22;6359;51.450;7.346;2022-11-20T14:21:55;4.60;99.90
12588;DHT22;6359;51.450;7.346;2022-11-20T14:24:32;4.60;99.90
12588;DHT22;6359;51.450;7.346;2022-11-20T14:26:59;4.70;99.90
12588;DHT22;6359;51.450;7.346;2022-11-20T14:29:29;4.70;99.90
12588;DHT22;6359;51.450;7.346;2022-11-20T14:31:59;4.70;99.90
12588;DHT22;6359;51.450;7.346;2022-11-20T14:34:28;4.60;99.90
12588;DHT22;6359;51.450;7.346;2022-11-20T14:36:58;4.60;99.90
12588;DHT22;6359;51.450;7.346;2022-11-20T14:39:30;4.50;99.90
12588;DHT22;6359;51.450;7.346;2022-11-20T14:41:57;4.40;99.90
12588;DHT22;6359;51.450;7.346;2022-11-20T14:44:29;4.50;99.90
12588;DHT22;6359;51.450;7.346;2022-11-20T14:46:59;4.50;99.90
12588;DHT22;6359;51.450;7.346;2022-11-20T14:49:26;4.60;99.90
12588;DHT22;6359;51.450;7.346;2022-11-20T14:52:00;4.50;99.90
12588;DHT22;6359;51.450;7.346;2022-11-20T14:54:27;4.50;99.90
12588;DHT22;6359;51.450;7.346;2022-11-20T14:56:57;4.40;99.90
12588;DHT22;6359;51.450;7.346;2022-11-20T14:59:24;4.30;99.90
12588;DHT22;6359;51.450;7.346;2022-11-20T15:01:57;4.20;99.90
12588;DHT22;6359;51.450;7.346;2022-11-20T15:04:25;4.00;99.90
12588;DHT22;6359;51.450;7.346;2022-11-20T15:06:53;4.00;99.90
12588;DHT22;6359;51.450;7.346;2022-11-20T15:09:21;4.00;99.90
12588;DHT22;6359;51.450;7.346;2022-11-20T15:11:54;3.90;99.90
12588;DHT22;6359;51.450;7.346;2022-11-20T15:14:22;3.90;99.90
12588;DHT22;6359;51.450;7.346;2022-11-20T15:16:50;3.90;99.90
12588;DHT22;6359;51.450;7.346;2022-11-20T15:19:20;3.90;99.90
12588;DHT22;6359;51.450;7.346;2022-11-20T15:21:48;3.90;99.90
12588;DHT22;6359;51.450;7.346;2022-11-20T15:24:15;3.90;99.90
12588;DHT22;6359;51.450;7.346;2022-11-20T15:26:42;3.90;99.90
12588;DHT22;6359;51.450;7.346;2022-11-20T15:29:11;3.80;99.90
12588;DHT22;6359;51.450;7.346;2022-11-20T15:31:38;3.80;99.90
12588;DHT22;6359;51.450;7.346;2022-11-20T15:34:10;3.80;99.90
12588;DHT22;6359;51.450;7.346;2022-11-20T15:36:39;3.90;99.90
12588;DHT22;6359;51.450;7.346;2022-11-20T15:39:07;3.80;99.90
12588;DHT22;6359;51.450;7.346;2022-11-20T15:41:35;3.80;99.90
12588;DHT22;6359;51.450;7.346;2022-11-20T15:44:02;3.80;99.90
12588;DHT22;6359;51.450;7.346;2022-11-20T15:46:31;3.70;99.90
12588;DHT22;6359;51.450;7.346;2022-11-20T15:49:03;3.60;99.90
12588;DHT22;6359;51.450;7.346;2022-11-20T15:51:31;3.60;99.90
12588;DHT22;6359;51.450;7.346;2022-11-20T15:54:03;3.60;99.90
12588;DHT22;6359;51.450;7.346;2022-11-20T15:56:30;3.70;99.90
12588;DHT22;6359;51.450;7.346;2022-11-20T15:58:58;3.60;99.90
12588;DHT22;6359;51.450;7.346;2022-11-20T16:01:25;3.60;99.90
12588;DHT22;6359;51.450;7.346;2022-11-20T16:03:52;3.50;99.90
12588;DHT22;6359;51.450;7.346;2022-11-20T16:06:19;3.50;99.90
12588;DHT22;6359;51.450;7.346;2022-11-20T16:08:45;3.50;99.90
12588;DHT22;6359;51.450;7.346;2022-11-20T16:11:16;3.50;99.90
12588;DHT22;6359;51.450;7.346;2022-11-20T16:13:43;3.50;99.90
12588;DHT22;6359;51.450;7.346;2022-11-20T16:16:29;3.50;99.90
12588;DHT22;6359;51.450;7.346;2022-11-20T16:18:57;3.40;99.90
12588;DHT22;6359;51.450;7.346;2022-11-20T16:21:25;3.30;99.90
12588;DHT22;6359;51.450;7.346;2022-11-20T16:23:57;3.30;99.90